Time;durP1;ratioP1;P1;durP2;ratioP2;P2;SDS_P1;SDS_P2;PMS_P1;PMS_P2;Temp;Humidity;BMP_temperature;BMP_pressure;BME280_temperature;BME280_humidity;BME280_pressure;Samples;Min_cycle;Max_cycle;Signal;HPM_P1;HPM_P2
2022/09/06 00:02:23;;;;;;;443.10;117.28;;;;;;;19.90;100.00;101602.00;10311411;28;20104;-77
2022/09/06 00:07:25;;;;;;;471.58;24.63;;;;;;;19.93;100.00;101598.50;10313950;28;20051;-78
2022/09/06 00:12:27;;;;;;;0.20;0.10;;;;;;;19.88;100.00;101595.88;10315180;28;20112;-77
2022/09/06 00:17:30;;;;;;;3.85;3.60;;;;;;;19.82;100.00;101607.19;10331033;28;20458;-77
2022/09/06 00:22:31;;;;;;;0.10;0.10;;;;;;;19.74;100.00;101618.53;10337721;28;20529;-77
2022/09/06 00:27:33;;;;;;;0.28;0.28;;;;;;;19.72;100.00;101626.38;10333199;28;20053;-78
2022/09/06 00:32:35;;;;;;;2.17;1.35;;;;;;;19.65;100.00;101622.91;10320425;28;20072;-77
2022/09/06 00:37:36;;;;;;;0.20;0.15;;;;;;;19.69;100.00;101615.94;10322564;28;20050;-77
2022/09/06 00:42:38;;;;;;;0.05;0.05;;;;;;;19.63;100.00;101616.78;10313233;28;20498;-77
2022/09/06 00:47:42;;;;;;;0.17;0.13;;;;;;;19.66;100.00;101615.91;10331082;28;20050;-77
2022/09/06 00:52:45;;;;;;;0.20;0.20;;;;;;;19.71;100.00;101621.13;10327198;28;20490;-76
2022/09/06 00:57:51;;;;;;;0.35;0.30;;;;;;;19.70;100.00;101616.78;10333706;28;20093;-76
2022/09/06 01:02:53;;;;;;;0.20;0.17;;;;;;;19.73;100.00;101611.56;10336848;28;20057;-77
2022/09/06 01:08:13;;;;;;;0.40;0.30;;;;;;;19.58;100.00;101608.09;10294907;28;20104;-77
2022/09/06 01:13:28;;;;;;;0.70;0.30;;;;;;;19.50;100.00;101594.16;10310363;28;20097;-77
2022/09/06 01:18:48;;;;;;;0.38;0.00;;;;;;;19.38;100.00;101589.78;10294632;28;20046;-77
2022/09/06 01:24:24;;;;;;;0.43;0.43;;;;;;;19.32;100.00;101595.03;10329671;28;20050;-77
2022/09/06 01:29:35;;;;;;;1.98;0.20;;;;;;;19.33;100.00;101592.41;10310062;28;20418;-77
2022/09/06 01:34:44;;;;;;;0.00;0.00;;;;;;;19.46;100.00;101597.66;10309462;28;20074;-77
2022/09/06 01:39:46;;;;;;;0.38;0.25;;;;;;;19.47;100.00;101602.00;10340395;28;20061;-77
2022/09/06 01:45:00;;;;;;;0.20;0.13;;;;;;;19.39;100.00;101603.75;10324193;28;20046;-77
2022/09/06 01:50:12;;;;;;;18.92;8.60;;;;;;;19.31;100.00;101615.06;10311433;28;20066;-78
2022/09/06 01:55:43;;;;;;;1999.90;999.90;;;;;;;19.34;100.00;101609.81;10307798;28;20050;-78
2022/09/06 02:01:01;;;;;;;1999.90;999.90;;;;;;;19.32;100.00;101626.38;10327608;28;20050;-77
2022/09/06 02:06:13;;;;;;;1999.90;999.90;;;;;;;19.39;100.00;101622.03;10318558;28;20137;-77
2022/09/06 02:11:15;;;;;;;1999.90;999.90;;;;;;;18.90;100.00;101664.56;10321834;28;20112;-76
2022/09/06 02:16:21;;;;;;;1999.90;999.90;;;;;;;19.18;100.00;101640.28;10319125;28;20469;-77
2022/09/06 02:21:30;;;;;;;4.57;4.28;;;;;;;19.29;100.00;101632.47;10311371;28;20072;-77
2022/09/06 02:26:36;;;;;;;4.47;4.18;;;;;;;19.23;100.00;101642.03;10346850;28;20054;-78
2022/09/06 02:31:46;;;;;;;4.50;4.20;;;;;;;19.27;100.00;101641.19;10317190;28;20054;-77
2022/09/06 02:36:48;;;;;;;5.90;5.50;;;;;;;19.19;100.00;101646.38;10322132;28;20080;-77
2022/09/06 02:41:49;;;;;;;6.07;5.68;;;;;;;19.18;100.00;101644.63;10311662;28;20039;-77
2022/09/06 02:46:51;;;;;;;7.65;7.15;;;;;;;18.93;100.00;101649.81;10337343;28;20151;-77
2022/09/06 02:51:57;;;;;;;216.48;31.88;;;;;;;18.88;100.00;101638.41;10335413;28;20133;-77
2022/09/06 02:56:59;;;;;;;6.70;6.30;;;;;;;18.98;100.00;101632.41;10316550;28;20042;-76
2022/09/06 03:02:00;;;;;;;6.90;6.50;;;;;;;18.33;100.00;101616.47;10318818;28;20062;-77
2022/09/06 03:07:02;;;;;;;9.10;8.50;;;;;;;18.44;100.00;101613.91;10326715;28;20481;-77
2022/09/06 03:12:04;;;;;;;660.53;46.55;;;;;;;18.39;100.00;101589.56;10334061;28;20058;-77
2022/09/06 03:17:05;;;;;;;1550.30;754.70;;;;;;;18.15;100.00;101590.28;10315284;28;20042;-77
2022/09/06 03:22:07;;;;;;;7.25;6.80;;;;;;;18.28;100.00;101583.41;10333665;28;20417;-77
2022/09/06 03:27:08;;;;;;;1999.90;999.90;;;;;;;18.21;100.00;101569.44;10323194;28;20051;-77
2022/09/06 03:32:10;;;;;;;1999.90;999.90;;;;;;;18.16;100.00;101560.75;10309300;28;20058;-77
2022/09/06 03:37:11;;;;;;;15.15;14.02;;;;;;;17.93;100.00;101564.06;10335335;28;20062;-77
2022/09/06 03:42:13;;;;;;;1999.90;999.90;;;;;;;18.07;100.00;101562.44;10313546;28;20536;-77
2022/09/06 03:47:15;;;;;;;1999.90;999.90;;;;;;;18.43;100.00;101543.47;10338720;28;20102;-77
2022/09/06 03:52:20;;;;;;;4.28;3.97;;;;;;;18.49;100.00;101553.94;10321462;28;20046;-78
2022/09/06 03:57:22;;;;;;;3.50;3.30;;;;;;;18.45;100.00;101562.59;10308564;28;20124;-79
2022/09/06 04:02:23;;;;;;;4.28;3.97;;;;;;;18.53;100.00;101579.16;10315083;28;20062;-78
2022/09/06 04:07:25;;;;;;;8.93;6.80;;;;;;;18.44;100.00;101582.59;10329530;28;20074;-78
2022/09/06 04:12:27;;;;;;;337.08;100.50;;;;;;;18.44;100.00;101579.09;10319205;28;20082;-78
2022/09/06 04:17:29;;;;;;;92.43;8.05;;;;;;;18.32;100.00;101593.84;10338962;28;20058;-78
2022/09/06 04:22:31;;;;;;;29.58;26.83;;;;;;;18.19;100.00;101592.91;10315139;28;20047;-79
2022/09/06 04:27:33;;;;;;;7.65;7.18;;;;;;;18.05;100.00;101602.41;10329671;28;20054;-79
2022/09/06 04:32:35;;;;;;;7.15;6.75;;;;;;;18.02;100.00;101600.66;10330751;28;20053;-79
2022/09/06 04:37:36;;;;;;;54.20;51.13;;;;;;;18.02;100.00;101592.84;10328435;28;20549;-78
2022/09/06 04:42:38;;;;;;;15.63;14.73;;;;;;;17.93;100.00;101584.91;10304251;28;20502;-79
2022/09/06 04:47:39;;;;;;;14.10;13.30;;;;;;;17.96;100.00;101584.97;10336078;28;20414;-79
2022/09/06 04:52:41;;;;;;;10.02;9.43;;;;;;;17.99;100.00;101600.63;10311233;28;20058;-79
2022/09/06 04:57:43;;;;;;;11.57;10.90;;;;;;;17.90;100.00;101601.41;10315378;28;20055;-79
2022/09/06 05:02:49;;;;;;;6.38;5.97;;;;;;;18.13;100.00;101607.69;10306066;28;20058;-79
2022/09/06 05:07:52;;;;;;;1999.90;999.90;;;;;;;17.76;100.00;101619.53;10325048;28;20050;-79
2022/09/06 05:12:54;;;;;;;1999.90;999.90;;;;;;;17.84;100.00;101684.78;10318539;28;20079;-79
2022/09/06 05:18:03;;;;;;;1999.90;999.90;;;;;;;17.70;100.00;101708.09;10316363;28;20560;-79
2022/09/06 05:23:05;;;;;;;1999.90;999.90;;;;;;;17.67;100.00;101726.34;10337678;28;20050;-79
2022/09/06 05:28:06;;;;;;;1999.90;999.90;;;;;;;17.41;100.00;101752.97;10312939;28;20083;-79
2022/09/06 05:33:09;;;;;;;1999.90;999.90;;;;;;;17.34;100.00;101765.94;10309965;28;20054;-79
2022/09/06 05:38:10;;;;;;;1999.90;999.90;;;;;;;17.70;100.00;101734.16;10315525;28;20054;-78
2022/09/06 05:43:12;;;;;;;1999.90;999.90;;;;;;;17.57;100.00;101758.34;10314558;28;20409;-79
2022/09/06 05:48:13;;;;;;;1999.90;999.90;;;;;;;17.65;100.00;101802.75;10311551;28;20047;-79
2022/09/06 05:53:15;;;;;;;1999.90;999.90;;;;;;;17.70;100.00;101794.09;10317682;28;20429;-79
2022/09/06 05:58:17;;;;;;;1999.90;999.90;;;;;;;18.08;100.00;101783.22;10297744;28;20049;-78
2022/09/06 06:03:18;;;;;;;1999.90;999.90;;;;;;;18.10;100.00;101769.31;10315058;28;20050;-79
2022/09/06 06:08:20;;;;;;;1999.90;999.90;;;;;;;18.37;100.00;101797.38;10309821;28;20050;-77
2022/09/06 06:13:21;;;;;;;1999.90;999.90;;;;;;;18.40;100.00;101779.09;10330229;28;20057;-77
2022/09/06 06:18:23;;;;;;;1999.90;999.90;;;;;;;18.62;100.00;101748.81;10311302;28;20046;-78
2022/09/06 06:23:26;;;;;;;1999.90;999.90;;;;;;;18.68;100.00;101733.19;10310175;28;20120;-78
2022/09/06 06:28:28;;;;;;;1999.90;999.90;;;;;;;18.87;100.00;101744.59;10327336;28;20058;-78
2022/09/06 06:33:31;;;;;;;1999.90;999.90;;;;;;;18.92;100.00;101749.88;10309851;28;20066;-78
2022/09/06 06:38:34;;;;;;;1999.90;999.90;;;;;;;19.07;100.00;101743.84;10311551;28;20117;-77
2022/09/06 06:43:37;;;;;;;1999.90;999.90;;;;;;;19.35;100.00;101720.44;10311142;28;20473;-78
2022/09/06 06:48:40;;;;;;;1999.90;999.90;;;;;;;19.92;100.00;101676.06;10314224;28;20104;-78
2022/09/06 06:53:43;;;;;;;1999.90;999.90;;;;;;;20.61;100.00;101646.25;10332167;28;20077;-78
2022/09/06 06:58:47;;;;;;;1999.90;999.90;;;;;;;21.18;100.00;101616.31;10314502;28;20062;-76
2022/09/06 07:03:49;;;;;;;1999.90;999.90;;;;;;;21.44;100.00;101598.66;10314922;28;20046;-78
2022/09/06 07:08:51;;;;;;;1999.90;999.90;;;;;;;21.35;100.00;101586.47;10325691;28;20058;-78
2022/09/06 07:13:53;;;;;;;1999.90;999.90;;;;;;;21.51;100.00;101572.34;10330725;28;20062;-79
2022/09/06 07:18:54;;;;;;;1999.90;999.90;;;;;;;22.27;100.00;101568.09;10314841;28;20064;-78
2022/09/06 07:23:56;;;;;;;1999.90;999.90;;;;;;;22.59;100.00;101556.34;10342946;28;20046;-78
2022/09/06 07:29:06;;;;;;;1999.90;999.90;;;;;;;22.82;100.00;101561.25;10319425;28;20059;-78
2022/09/06 07:34:07;;;;;;;1999.90;999.90;;;;;;;23.75;100.00;101543.97;10339525;28;20058;-77
2022/09/06 07:39:09;;;;;;;1999.90;999.90;;;;;;;23.05;100.00;101531.13;10341015;28;20065;-77
2022/09/06 07:44:11;;;;;;;1999.90;999.90;;;;;;;24.07;100.00;101509.13;10335055;28;20453;-77
2022/09/06 07:49:12;;;;;;;1999.90;999.90;;;;;;;23.70;100.00;101519.47;10302142;28;20054;-77
2022/09/06 07:54:14;;;;;;;1999.90;999.90;;;;;;;24.65;100.00;101505.22;10321176;28;20046;-78
2022/09/06 07:59:32;;;;;;;1999.90;999.90;;;;;;;24.27;100.00;101505.19;10314698;28;20054;-77
2022/09/06 08:04:33;;;;;;;1999.90;999.90;;;;;;;24.32;100.00;101513.00;10336867;28;20133;-76
2022/09/06 08:09:37;;;;;;;1999.90;999.90;;;;;;;24.56;100.00;101516.84;10319610;28;20054;-77
2022/09/06 08:14:39;;;;;;;1999.90;999.90;;;;;;;24.21;100.00;101505.34;10341829;28;20490;-76
2022/09/06 08:19:41;;;;;;;1999.90;999.90;;;;;;;24.91;100.00;101496.72;10350692;28;20073;-75
2022/09/06 08:24:43;;;;;;;1999.90;999.90;;;;;;;24.78;100.00;101496.16;10363026;28;20050;-75
2022/09/06 08:29:44;;;;;;;29.38;10.35;;;;;;;25.91;100.00;101482.63;10366423;28;20509;-76
2022/09/06 08:34:46;;;;;;;31.63;22.70;;;;;;;25.44;100.00;101479.56;10365605;28;20517;-76
2022/09/06 08:39:48;;;;;;;0.47;0.47;;;;;;;26.03;100.00;101470.84;10332447;28;20058;-76
2022/09/06 08:44:51;;;;;;;9.05;0.90;;;;;;;25.77;100.00;101476.91;10347159;28;20039;-77
2022/09/06 08:50:02;;;;;;;1.02;0.93;;;;;;;25.91;100.00;101469.44;10375993;28;20587;-76
2022/09/06 08:55:29;;;;;;;0.57;0.47;;;;;;;26.38;100.00;101468.94;10336437;28;20054;-77
2022/09/06 09:00:33;;;;;;;0.32;0.20;;;;;;;27.10;100.00;101461.34;10320235;28;20066;-77
2022/09/06 09:05:40;;;;;;;3.97;0.85;;;;;;;27.07;99.83;101457.88;10332933;28;20046;-76
2022/09/06 09:10:44;;;;;;;61.97;2.30;;;;;;;27.22;94.38;101459.13;10325651;28;20055;-75
2022/09/06 09:15:46;;;;;;;1.00;0.43;;;;;;;27.17;91.14;101461.06;10326866;28;20486;-76
2022/09/06 09:20:49;;;;;;;1.17;0.38;;;;;;;26.72;90.81;101452.00;10339535;28;20050;-75
2022/09/06 09:25:54;;;;;;;3.20;0.57;;;;;;;27.23;83.90;101455.56;10331948;28;20042;-76
2022/09/06 09:30:56;;;;;;;0.20;0.20;;;;;;;27.37;84.70;101448.91;10328001;28;20058;-75
2022/09/06 09:36:06;;;;;;;0.52;0.38;;;;;;;27.72;82.91;101444.16;10308585;28;20050;-75
2022/09/06 09:41:09;;;;;;;0.73;0.20;;;;;;;27.50;74.51;101442.31;10310110;28;20054;-77
2022/09/06 09:46:22;;;;;;;0.10;0.10;;;;;;;27.98;79.71;101426.38;10334074;28;20136;-77
2022/09/06 09:51:25;;;;;;;0.80;0.47;;;;;;;27.18;74.70;101436.34;10322724;28;20570;-77
2022/09/06 09:57:00;;;;;;;0.35;0.20;;;;;;;27.95;67.88;101434.47;10315298;28;20044;-76
2022/09/06 10:02:34;;;;;;;0.35;0.22;;;;;;;27.81;73.18;101427.88;10332249;28;20042;-77
2022/09/06 10:07:44;;;;;;;0.10;0.10;;;;;;;27.55;66.54;101427.09;10323842;28;20493;-78
2022/09/06 10:12:45;;;;;;;13.00;0.20;;;;;;;27.48;69.44;101420.31;10333209;28;20120;-77
2022/09/06 10:17:50;;;;;;;1.25;0.55;;;;;;;27.89;70.07;101413.53;10323189;28;20113;-77
2022/09/06 10:23:04;;;;;;;0.08;0.08;;;;;;;27.78;65.42;101422.72;10319344;28;20054;-77
2022/09/06 10:28:27;;;;;;;0.40;0.35;;;;;;;28.72;61.67;101399.56;10330574;28;20421;-77
2022/09/06 10:33:55;;;;;;;0.10;0.10;;;;;;;28.26;61.85;101386.44;10333177;28;20074;-75
2022/09/06 10:39:04;;;;;;;0.20;0.15;;;;;;;29.27;57.57;101392.78;10354029;28;20050;-77
2022/09/06 10:44:44;;;;;;;0.20;0.10;;;;;;;29.34;58.88;101394.25;10344435;28;20061;-78
2022/09/06 10:49:56;;;;;;;0.15;0.00;;;;;;;29.23;53.17;101399.13;10324697;28;20092;-76
2022/09/06 10:55:03;;;;;;;0.50;0.10;;;;;;;29.54;50.11;101392.47;10347050;28;20057;-77
2022/09/06 11:00:41;;;;;;;0.03;0.03;;;;;;;29.87;49.47;101387.34;10336378;28;20068;-76
2022/09/06 11:05:51;;;;;;;0.45;0.30;;;;;;;30.21;50.09;101395.50;10352242;28;20051;-78
2022/09/06 11:11:27;;;;;;;0.10;0.10;;;;;;;29.13;51.88;101394.28;10345387;28;20062;-76
2022/09/06 11:16:38;;;;;;;0.20;0.20;;;;;;;30.09;58.32;101393.47;10343105;28;20051;-77
2022/09/06 11:22:06;;;;;;;0.28;0.10;;;;;;;29.18;49.44;101388.75;10337832;28;20062;-78
2022/09/06 11:27:20;;;;;;;0.17;0.17;;;;;;;28.53;55.17;101393.31;10338316;28;20422;-77
2022/09/06 11:32:47;;;;;;;0.00;0.00;;;;;;;29.71;49.69;101387.25;10342799;28;20090;-77
2022/09/06 11:38:00;;;;;;;0.10;0.10;;;;;;;29.34;49.83;101396.06;10344594;28;20081;-76
2022/09/06 11:43:02;;;;;;;0.22;0.15;;;;;;;29.57;48.60;101408.25;10346977;28;20069;-76
2022/09/06 11:48:21;;;;;;;0.30;0.20;;;;;;;29.71;48.65;101395.19;10337027;28;20058;-79
2022/09/06 11:53:28;;;;;;;0.00;0.00;;;;;;;29.43;50.70;101401.81;10328249;28;20494;-78
2022/09/06 11:58:46;;;;;;;0.03;0.03;;;;;;;29.56;51.94;101406.53;10336680;28;20061;-77
2022/09/06 12:04:14;;;;;;;0.10;0.10;;;;;;;29.29;52.06;101401.53;10312673;28;20050;-77
2022/09/06 12:09:39;;;;;;;0.32;0.20;;;;;;;29.34;51.79;101407.53;10314608;28;20469;-78
2022/09/06 12:14:45;;;;;;;0.20;0.10;;;;;;;28.48;54.60;101406.75;10319112;28;20544;-78
2022/09/06 12:19:47;;;;;;;0.08;0.00;;;;;;;29.06;52.85;101403.44;10312006;28;20109;-79
2022/09/06 12:24:52;;;;;;;0.25;0.13;;;;;;;29.06;50.89;101392.81;10331605;28;20051;-79
2022/09/06 12:30:00;;;;;;;0.10;0.10;;;;;;;28.95;51.12;101400.38;10318771;28;20422;-79
2022/09/06 12:35:09;;;;;;;0.35;0.30;;;;;;;29.89;50.32;101395.28;10330776;28;20101;-79
2022/09/06 12:40:34;;;;;;;;;;;;;;;29.53;50.28;101394.28;10338246;28;20062;-78
2022/09/06 12:45:41;;;;;;;0.30;0.10;;;;;;;29.48;55.00;101387.44;10330945;28;20284;-78
2022/09/06 12:50:43;;;;;;;0.10;0.10;;;;;;;30.22;46.92;101389.28;10333298;28;20058;-79
2022/09/06 12:55:44;;;;;;;0.40;0.10;;;;;;;29.39;51.58;101378.13;10332727;28;20081;-79
2022/09/06 13:00:51;;;;;;;0.08;0.08;;;;;;;29.36;53.36;101370.28;10331032;28;20093;-77
2022/09/06 13:05:54;;;;;;;0.47;0.20;;;;;;;29.37;53.07;101366.72;10322772;28;20101;-76
2022/09/06 13:10:56;;;;;;;0.65;0.25;;;;;;;28.11;58.35;101356.13;10342330;28;20046;-78
2022/09/06 13:15:58;;;;;;;0.05;0.05;;;;;;;29.12;60.31;101339.50;10318395;28;20058;-77
2022/09/06 13:21:04;;;;;;;0.13;0.10;;;;;;;29.18;55.19;101343.66;10314435;28;20141;-76
2022/09/06 13:26:06;;;;;;;0.22;0.10;;;;;;;28.97;54.85;101337.53;10293314;28;20116;-78
2022/09/06 13:31:16;;;;;;;0.50;0.20;;;;;;;29.22;56.54;101323.16;10318432;28;20093;-78
2022/09/06 13:36:25;;;;;;;0.15;0.10;;;;;;;29.03;54.81;101323.13;10315089;28;20062;-79
2022/09/06 13:41:27;;;;;;;2.30;0.25;;;;;;;29.48;52.90;101332.59;10314946;28;20113;-77
2022/09/06 13:46:29;;;;;;;1.17;0.90;;;;;;;29.31;52.55;101322.75;10317856;28;20054;-77
2022/09/06 13:51:30;;;;;;;0.08;0.08;;;;;;;28.81;50.33;101324.94;10333770;28;20061;-78
2022/09/06 13:56:32;;;;;;;0.55;0.10;;;;;;;29.61;51.44;101324.88;10333608;28;20105;-79
2022/09/06 14:01:34;;;;;;;0.00;0.00;;;;;;;28.26;56.38;101320.22;10318229;28;20418;-77
2022/09/06 14:06:35;;;;;;;2.80;0.30;;;;;;;29.31;54.22;101311.28;10334901;28;20050;-76
2022/09/06 14:11:38;;;;;;;1.27;0.57;;;;;;;29.46;52.14;101307.03;10352037;28;20066;-77
2022/09/06 14:16:39;;;;;;;0.20;0.10;;;;;;;29.80;51.52;101308.06;10322657;28;20058;-78
2022/09/06 14:21:42;;;;;;;0.65;0.40;;;;;;;30.01;46.61;101312.34;10339888;28;20054;-78
2022/09/06 14:26:43;;;;;;;0.10;0.10;;;;;;;29.64;47.22;101308.81;10336037;28;20054;-78
2022/09/06 14:31:47;;;;;;;0.10;0.10;;;;;;;29.27;49.48;101299.91;10340722;28;20464;-77
2022/09/06 14:36:48;;;;;;;0.28;0.10;;;;;;;29.70;46.08;101305.84;10358873;28;20050;-79
2022/09/06 14:41:50;;;;;;;0.10;0.10;;;;;;;29.29;48.23;101282.97;10312405;28;20520;-77
2022/09/06 14:46:53;;;;;;;0.30;0.13;;;;;;;29.52;48.66;101290.84;10329560;28;20109;-76
2022/09/06 14:52:12;;;;;;;0.35;0.13;;;;;;;29.71;52.61;101278.38;10320085;28;20062;-76
2022/09/06 14:57:14;;;;;;;0.28;0.28;;;;;;;29.22;42.33;101289.50;10303006;28;20055;-76
2022/09/06 15:02:15;;;;;;;0.00;0.00;;;;;;;29.44;38.56;101284.09;10338157;28;20054;-77
2022/09/06 15:07:17;;;;;;;0.03;0.03;;;;;;;29.72;36.74;101282.75;10330955;28;20235;-78
2022/09/06 15:12:19;;;;;;;0.03;0.03;;;;;;;29.44;36.89;101286.75;10328931;28;20050;-76
2022/09/06 15:17:21;;;;;;;0.00;0.00;;;;;;;29.51;35.95;101289.94;10310196;28;20058;-75
2022/09/06 15:22:22;;;;;;;0.08;0.08;;;;;;;29.25;37.91;101276.13;10341519;28;20061;-77
2022/09/06 15:34:24;;;;;;;0.00;0.00;;;;;;;28.96;35.39;101262.41;10311648;28;20506;-77
2022/09/06 15:39:26;;;;;;;0.05;0.05;;;;;;;29.20;37.15;101261.34;10332417;28;20057;-77
2022/09/06 15:44:28;;;;;;;0.15;0.15;;;;;;;29.35;39.88;101267.72;10341870;28;20121;-76
2022/09/06 15:49:31;;;;;;;0.10;0.10;;;;;;;29.00;38.36;101268.44;10378685;28;20054;-77
2022/09/06 16:00:20;;;;;;;0.93;0.32;;;;;;;28.94;41.41;101255.44;10322898;28;20066;-77
2022/09/06 16:05:22;;;;;;;0.20;0.15;;;;;;;28.65;41.11;101254.94;10314654;28;20053;-76
2022/09/06 16:10:45;;;;;;;0.80;0.40;;;;;;;28.61;45.66;101242.78;10295870;28;20042;-76
2022/09/06 16:15:59;;;;;;;0.20;0.10;;;;;;;28.31;47.03;101240.53;10335824;28;20105;-76
2022/09/06 16:21:09;;;;;;;0.10;0.08;;;;;;;28.29;54.59;101231.78;10345130;28;20050;-76
2022/09/06 16:26:39;;;;;;;0.05;0.05;;;;;;;27.88;49.14;101237.91;10320533;28;20481;-76
2022/09/06 16:31:41;;;;;;;0.15;0.13;;;;;;;27.75;51.91;101236.69;10312869;28;20042;-76
2022/09/06 16:36:45;;;;;;;0.30;0.10;;;;;;;27.52;50.31;101219.97;10315020;28;20465;-76
2022/09/06 16:42:03;;;;;;;0.00;0.00;;;;;;;27.37;51.22;101226.69;10335506;28;20049;-76
2022/09/06 16:47:37;;;;;;;0.20;0.13;;;;;;;27.35;61.95;101217.97;10482891;28;20901;-75
2022/09/06 16:59:06;;;;;;;0.00;0.00;;;;;;;26.81;59.91;101217.41;10469672;28;20033;-75
2022/09/06 17:04:37;;;;;;;0.00;0.00;;;;;;;26.53;64.71;101223.63;10462436;28;20033;-76
2022/09/06 17:10:32;;;;;;;0.00;0.00;;;;;;;26.32;70.57;101235.84;10463130;28;20053;-76
2022/09/06 17:17:03;;;;;;;0.00;0.00;;;;;;;26.12;65.33;101234.75;10444143;28;20095;-76
2022/09/06 17:21:06;;;;;;;0.52;0.22;;;;;;;25.85;66.13;101237.38;10463892;28;20485;-75
2022/09/06 17:26:14;;;;;;;0.00;0.00;;;;;;;25.65;67.87;101230.94;10449405;28;20033;-76
2022/09/06 17:31:17;;;;;;;0.00;0.00;;;;;;;25.41;79.93;101226.47;10444692;28;20107;-75
2022/09/06 17:36:29;;;;;;;0.00;0.00;;;;;;;24.90;90.19;101225.31;10460646;28;20095;-76
2022/09/06 17:41:37;;;;;;;0.38;0.20;;;;;;;24.62;91.99;101231.34;10448768;28;20492;-75
2022/09/06 17:46:40;;;;;;;0.00;0.00;;;;;;;24.14;97.84;101229.97;10452689;28;20132;-75
2022/09/06 17:52:02;;;;;;;0.00;0.00;;;;;;;23.79;100.00;101234.34;10450384;28;20040;-75
2022/09/06 17:57:03;;;;;;;0.00;0.00;;;;;;;23.51;100.00;101250.72;10427085;28;20112;-75
2022/09/06 18:02:08;;;;;;;0.00;0.00;;;;;;;23.26;100.00;101256.56;10439121;28;20049;-74
2022/09/06 18:07:10;;;;;;;0.00;0.00;;;;;;;23.03;100.00;101254.38;10456948;28;20063;-75
2022/09/06 18:12:12;;;;;;;0.00;0.00;;;;;;;23.05;100.00;101258.69;10452738;28;20045;-76
2022/09/06 18:17:14;;;;;;;0.20;0.10;;;;;;;23.18;100.00;101255.84;10426579;28;20045;-76
2022/09/06 18:22:15;;;;;;;0.20;0.03;;;;;;;23.17;99.50;101256.72;10423433;28;20091;-76
2022/09/06 18:27:17;;;;;;;0.00;0.00;;;;;;;22.91;100.00;101252.84;10438446;28;20072;-74
2022/09/06 18:32:19;;;;;;;0.00;0.00;;;;;;;22.47;100.00;101256.31;10418752;28;20057;-76
2022/09/06 18:37:20;;;;;;;0.00;0.00;;;;;;;22.44;100.00;101251.13;10427345;28;20042;-76
2022/09/06 18:42:22;;;;;;;0.05;0.00;;;;;;;22.23;100.00;101251.47;10435342;28;20045;-77
2022/09/06 18:47:24;;;;;;;0.03;0.03;;;;;;;22.20;100.00;101252.38;10404591;28;20041;-77
2022/09/06 18:52:26;;;;;;;0.32;0.20;;;;;;;22.12;100.00;101259.50;10427115;28;20053;-78
2022/09/06 18:57:29;;;;;;;0.00;0.00;;;;;;;21.98;100.00;101263.22;10425519;28;20083;-76
2022/09/06 19:02:31;;;;;;;0.00;0.00;;;;;;;21.92;100.00;101262.47;10429663;28;20049;-77
2022/09/06 19:07:32;;;;;;;0.05;0.05;;;;;;;22.05;100.00;101266.63;10439289;28;20045;-77
2022/09/06 19:12:34;;;;;;;0.00;0.00;;;;;;;21.61;100.00;101262.94;10452315;28;20050;-77
2022/09/06 19:17:35;;;;;;;0.10;0.10;;;;;;;21.86;100.00;101256.41;10457060;28;20527;-76
2022/09/06 19:22:37;;;;;;;0.10;0.10;;;;;;;22.15;100.00;101244.56;10457072;28;20075;-76
2022/09/06 19:27:38;;;;;;;0.43;0.17;;;;;;;22.07;100.00;101222.88;10447136;28;20053;-76
2022/09/06 19:32:40;;;;;;;0.00;0.00;;;;;;;22.59;100.00;101209.72;10445329;28;20062;-76
2022/09/06 19:37:42;;;;;;;1.13;0.20;;;;;;;22.68;100.00;101208.66;10464360;28;20046;-76
2022/09/06 19:42:44;;;;;;;0.22;0.13;;;;;;;22.79;100.00;101201.41;10475430;28;20396;-76
2022/09/06 19:47:45;;;;;;;0.10;0.10;;;;;;;22.82;100.00;101189.09;10439957;28;20079;-76
2022/09/06 19:52:48;;;;;;;0.10;0.10;;;;;;;22.62;100.00;101186.00;10444988;28;20077;-76
2022/09/06 19:57:49;;;;;;;0.73;0.57;;;;;;;22.49;100.00;101162.63;10474224;28;20052;-76
2022/09/06 20:03:20;;;;;;;0.30;0.10;;;;;;;22.66;100.00;101158.81;10463179;28;20095;-76
2022/09/06 20:08:22;;;;;;;0.55;0.38;;;;;;;22.49;100.00;101167.00;10466142;28;20037;-76
2022/09/06 20:13:25;;;;;;;0.82;0.60;;;;;;;22.28;100.00;101160.41;10437666;28;20041;-76
2022/09/06 20:18:26;;;;;;;0.10;0.10;;;;;;;22.16;100.00;101162.34;10439657;28;20053;-76
2022/09/06 20:23:29;;;;;;;0.20;0.20;;;;;;;22.19;100.00;101171.91;10458993;28;20039;-77
2022/09/06 20:28:32;;;;;;;0.82;0.32;;;;;;;22.08;100.00;101192.25;10449115;28;20111;-76
2022/09/06 20:33:34;;;;;;;0.25;0.17;;;;;;;22.13;100.00;101174.66;10453296;28;20044;-76
2022/09/06 20:38:40;;;;;;;0.65;0.32;;;;;;;22.05;100.00;101164.31;10449742;28;20052;-76
2022/09/06 20:43:43;;;;;;;0.20;0.20;;;;;;;22.13;100.00;101177.28;10449759;28;20042;-76
2022/09/06 20:48:45;;;;;;;0.00;0.00;;;;;;;22.03;100.00;101155.59;10453069;28;20050;-78
2022/09/06 20:53:58;;;;;;;0.13;0.13;;;;;;;22.06;100.00;101150.28;10452266;28;20034;-78
2022/09/06 20:59:02;;;;;;;0.15;0.10;;;;;;;21.99;100.00;101154.78;10433467;28;20088;-77
2022/09/06 21:04:12;;;;;;;0.82;0.50;;;;;;;21.93;100.00;101159.28;10443930;28;20444;-77
2022/09/06 21:09:14;;;;;;;0.20;0.20;;;;;;;21.89;100.00;101163.72;10418190;28;20556;-77
2022/09/06 21:14:17;;;;;;;0.88;0.25;;;;;;;21.78;100.00;101169.13;10416887;28;20046;-77
2022/09/06 21:19:49;;;;;;;2.05;0.35;;;;;;;21.49;100.00;101180.06;10336953;22;20502;-77
2022/09/06 21:24:50;;;;;;;0.45;0.38;;;;;;;20.96;100.00;101177.31;10308013;28;20453;-77
2022/09/06 21:29:52;;;;;;;0.30;0.25;;;;;;;21.32;100.00;101161.97;10317636;28;20524;-76
2022/09/06 21:34:53;;;;;;;0.55;0.43;;;;;;;21.31;100.00;101170.72;10295164;28;20047;-77
2022/09/06 21:39:55;;;;;;;0.43;0.40;;;;;;;21.15;100.00;101163.06;10311940;28;20101;-76
2022/09/06 21:44:56;;;;;;;0.65;0.52;;;;;;;21.18;100.00;101157.78;10324598;28;20047;-77
2022/09/06 21:50:25;;;;;;;0.80;0.52;;;;;;;21.13;100.00;101167.44;10310397;28;20049;-77
2022/09/06 21:55:31;;;;;;;0.93;0.67;;;;;;;21.19;100.00;101156.88;10293490;28;20043;-76
2022/09/06 22:00:33;;;;;;;0.40;0.30;;;;;;;21.27;100.00;101145.41;10302352;28;20047;-78
2022/09/06 22:05:35;;;;;;;1.52;0.40;;;;;;;21.37;100.00;101128.69;10300885;28;20047;-79
2022/09/06 22:10:36;;;;;;;0.47;0.30;;;;;;;21.49;100.00;101110.13;10353177;28;20047;-76
2022/09/06 22:15:38;;;;;;;1.08;0.65;;;;;;;21.61;100.00;101074.16;10309167;28;20071;-77
2022/09/06 22:20:40;;;;;;;0.63;0.52;;;;;;;21.58;100.00;101082.06;10321875;28;20050;-77
2022/09/06 22:25:41;;;;;;;4.35;4.05;;;;;;;21.56;100.00;101092.56;10326452;28;20109;-77
2022/09/06 22:30:43;;;;;;;4.68;1.20;;;;;;;21.35;100.00;101114.72;10339471;28;20104;-76
2022/09/06 22:35:45;;;;;;;3.75;3.33;;;;;;;21.28;100.00;101105.22;10313935;28;20043;-75
2022/09/06 22:40:47;;;;;;;0.52;0.30;;;;;;;21.16;100.00;101094.06;10344050;28;20053;-77
2022/09/06 22:45:49;;;;;;;1.42;0.95;;;;;;;21.27;100.00;101079.91;10316357;28;20101;-77
2022/09/06 22:50:52;;;;;;;0.93;0.40;;;;;;;21.16;100.00;101083.59;10346488;28;20046;-77
2022/09/06 22:55:55;;;;;;;0.57;0.47;;;;;;;21.18;100.00;101105.41;10329153;28;20109;-77
2022/09/06 23:01:06;;;;;;;0.90;0.20;;;;;;;21.30;100.00;101092.97;10334412;28;20112;-77
2022/09/06 23:06:08;;;;;;;33.83;4.82;;;;;;;21.22;100.00;101087.88;10324939;28;20035;-78
2022/09/06 23:11:12;;;;;;;1.75;1.65;;;;;;;21.30;100.00;101085.13;10298858;28;20051;-77
2022/09/06 23:16:17;;;;;;;3.58;1.27;;;;;;;21.14;100.00;101087.97;10282645;28;20115;-77
2022/09/06 23:21:23;;;;;;;30.42;28.60;;;;;;;21.07;100.00;101087.19;10307346;28;20049;-77